sensor_id;sensor_type;location;lat;lon;timestamp;P1;durP1;ratioP1;P2;durP2;ratioP2
4274;SDS011;2151;50.988;11.068;2023-11-21T00:00:54;118.03;;;5.67;;
4274;SDS011;2151;50.988;11.068;2023-11-21T00:03:21;113.37;;;5.60;;
4274;SDS011;2151;50.988;11.068;2023-11-21T00:05:49;114.40;;;5.80;;
4274;SDS011;2151;50.988;11.068;2023-11-21T00:08:16;115.73;;;5.47;;
4274;SDS011;2151;50.988;11.068;2023-11-21T00:10:43;113.13;;;5.27;;
4274;SDS011;2151;50.988;11.068;2023-11-21T00:13:10;113.33;;;5.50;;
4274;SDS011;2151;50.988;11.068;2023-11-21T00:15:38;113.07;;;5.73;;
4274;SDS011;2151;50.988;11.068;2023-11-21T00:18:06;115.43;;;5.87;;
4274;SDS011;2151;50.988;11.068;2023-11-21T00:20:32;113.30;;;5.30;;
4274;SDS011;2151;50.988;11.068;2023-11-21T00:22:59;112.17;;;5.40;;
4274;SDS011;2151;50.988;11.068;2023-11-21T00:25:28;112.47;;;5.13;;
4274;SDS011;2151;50.988;11.068;2023-11-21T00:27:55;112.07;;;5.40;;
4274;SDS011;2151;50.988;11.068;2023-11-21T00:30:21;113.07;;;5.40;;
4274;SDS011;2151;50.988;11.068;2023-11-21T00:32:48;114.37;;;5.30;;
4274;SDS011;2151;50.988;11.068;2023-11-21T00:35:15;112.30;;;5.20;;
4274;SDS011;2151;50.988;11.068;2023-11-21T00:37:42;112.87;;;5.37;;
4274;SDS011;2151;50.988;11.068;2023-11-21T00:40:09;116.33;;;5.63;;
4274;SDS011;2151;50.988;11.068;2023-11-21T00:42:35;113.27;;;5.23;;
4274;SDS011;2151;50.988;11.068;2023-11-21T00:45:02;112.50;;;5.23;;
4274;SDS011;2151;50.988;11.068;2023-11-21T00:47:29;111.77;;;5.20;;
4274;SDS011;2151;50.988;11.068;2023-11-21T00:49:56;112.57;;;5.30;;
4274;SDS011;2151;50.988;11.068;2023-11-21T00:52:23;113.23;;;5.47;;
4274;SDS011;2151;50.988;11.068;2023-11-21T00:54:49;112.97;;;5.27;;
4274;SDS011;2151;50.988;11.068;2023-11-21T00:57:16;115.97;;;5.50;;
4274;SDS011;2151;50.988;11.068;2023-11-21T00:59:42;113.20;;;5.70;;
4274;SDS011;2151;50.988;11.068;2023-11-21T01:02:09;112.40;;;5.40;;
4274;SDS011;2151;50.988;11.068;2023-11-21T01:04:37;112.40;;;5.33;;
4274;SDS011;2151;50.988;11.068;2023-11-21T01:07:04;114.53;;;5.57;;
4274;SDS011;2151;50.988;11.068;2023-11-21T01:09:31;118.07;;;5.53;;
4274;SDS011;2151;50.988;11.068;2023-11-21T01:11:58;114.50;;;6.10;;
4274;SDS011;2151;50.988;11.068;2023-11-21T01:14:26;114.23;;;5.30;;
4274;SDS011;2151;50.988;11.068;2023-11-21T01:16:53;114.73;;;5.77;;
4274;SDS011;2151;50.988;11.068;2023-11-21T01:19:19;114.70;;;5.47;;
4274;SDS011;2151;50.988;11.068;2023-11-21T01:21:46;113.97;;;5.23;;
4274;SDS011;2151;50.988;11.068;2023-11-21T01:24:12;115.23;;;6.03;;
4274;SDS011;2151;50.988;11.068;2023-11-21T01:26:39;116.10;;;5.50;;
4274;SDS011;2151;50.988;11.068;2023-11-21T01:29:05;112.57;;;5.63;;
4274;SDS011;2151;50.988;11.068;2023-11-21T01:31:31;114.60;;;5.67;;
4274;SDS011;2151;50.988;11.068;2023-11-21T01:33:58;111.47;;;5.30;;
4274;SDS011;2151;50.988;11.068;2023-11-21T01:36:34;113.07;;;5.60;;
4274;SDS011;2151;50.988;11.068;2023-11-21T01:39:01;113.87;;;5.83;;
4274;SDS011;2151;50.988;11.068;2023-11-21T01:41:34;114.80;;;5.47;;
4274;SDS011;2151;50.988;11.068;2023-11-21T01:44:01;113.03;;;6.10;;
4274;SDS011;2151;50.988;11.068;2023-11-21T01:46:28;112.37;;;5.53;;
4274;SDS011;2151;50.988;11.068;2023-11-21T01:48:55;113.33;;;5.73;;
4274;SDS011;2151;50.988;11.068;2023-11-21T01:51:21;113.73;;;5.80;;
4274;SDS011;2151;50.988;11.068;2023-11-21T01:53:48;116.00;;;6.03;;
4274;SDS011;2151;50.988;11.068;2023-11-21T01:56:14;114.00;;;5.80;;
4274;SDS011;2151;50.988;11.068;2023-11-21T01:58:41;112.80;;;5.57;;
4274;SDS011;2151;50.988;11.068;2023-11-21T02:01:09;114.27;;;5.60;;
4274;SDS011;2151;50.988;11.068;2023-11-21T02:03:36;112.17;;;5.57;;
4274;SDS011;2151;50.988;11.068;2023-11-21T02:06:03;113.67;;;5.50;;
4274;SDS011;2151;50.988;11.068;2023-11-21T02:08:29;116.47;;;5.17;;
4274;SDS011;2151;50.988;11.068;2023-11-21T02:10:56;113.30;;;6.20;;
4274;SDS011;2151;50.988;11.068;2023-11-21T02:13:24;111.80;;;5.83;;
4274;SDS011;2151;50.988;11.068;2023-11-21T02:15:50;117.67;;;6.43;;
4274;SDS011;2151;50.988;11.068;2023-11-21T02:18:18;112.90;;;5.90;;
4274;SDS011;2151;50.988;11.068;2023-11-21T02:20:45;119.83;;;5.90;;
4274;SDS011;2151;50.988;11.068;2023-11-21T02:23:12;115.30;;;5.80;;
4274;SDS011;2151;50.988;11.068;2023-11-21T02:25:39;115.20;;;5.53;;
4274;SDS011;2151;50.988;11.068;2023-11-21T02:28:05;114.67;;;5.97;;
4274;SDS011;2151;50.988;11.068;2023-11-21T02:30:33;119.33;;;6.20;;
4274;SDS011;2151;50.988;11.068;2023-11-21T02:33:00;116.20;;;6.47;;
4274;SDS011;2151;50.988;11.068;2023-11-21T02:35:27;112.97;;;5.23;;
4274;SDS011;2151;50.988;11.068;2023-11-21T02:37:53;113.57;;;6.10;;
4274;SDS011;2151;50.988;11.068;2023-11-21T02:40:21;112.23;;;5.40;;
4274;SDS011;2151;50.988;11.068;2023-11-21T02:42:47;114.90;;;6.17;;
4274;SDS011;2151;50.988;11.068;2023-11-21T02:45:15;116.50;;;6.13;;
4274;SDS011;2151;50.988;11.068;2023-11-21T02:47:44;115.50;;;5.47;;
4274;SDS011;2151;50.988;11.068;2023-11-21T02:50:11;115.40;;;7.83;;
4274;SDS011;2151;50.988;11.068;2023-11-21T02:52:38;113.13;;;5.43;;
4274;SDS011;2151;50.988;11.068;2023-11-21T02:55:06;113.37;;;5.80;;
4274;SDS011;2151;50.988;11.068;2023-11-21T02:57:36;115.13;;;5.43;;
4274;SDS011;2151;50.988;11.068;2023-11-21T03:00:02;115.57;;;5.63;;
4274;SDS011;2151;50.988;11.068;2023-11-21T03:02:30;113.37;;;6.27;;
4274;SDS011;2151;50.988;11.068;2023-11-21T03:04:57;118.57;;;5.70;;
4274;SDS011;2151;50.988;11.068;2023-11-21T03:07:23;113.27;;;5.70;;
4274;SDS011;2151;50.988;11.068;2023-11-21T03:09:50;112.17;;;5.47;;
4274;SDS011;2151;50.988;11.068;2023-11-21T03:12:16;113.60;;;5.63;;
4274;SDS011;2151;50.988;11.068;2023-11-21T03:14:43;112.90;;;5.93;;
4274;SDS011;2151;50.988;11.068;2023-11-21T03:17:09;116.77;;;6.40;;
4274;SDS011;2151;50.988;11.068;2023-11-21T03:19:36;115.57;;;6.10;;
4274;SDS011;2151;50.988;11.068;2023-11-21T03:22:02;117.20;;;5.70;;
4274;SDS011;2151;50.988;11.068;2023-11-21T03:24:30;116.47;;;6.40;;
4274;SDS011;2151;50.988;11.068;2023-11-21T03:26:57;114.97;;;6.03;;
4274;SDS011;2151;50.988;11.068;2023-11-21T03:29:24;114.33;;;6.20;;
4274;SDS011;2151;50.988;11.068;2023-11-21T03:31:50;115.47;;;6.00;;
4274;SDS011;2151;50.988;11.068;2023-11-21T03:34:24;113.80;;;5.90;;
4274;SDS011;2151;50.988;11.068;2023-11-21T03:36:52;114.27;;;6.40;;
4274;SDS011;2151;50.988;11.068;2023-11-21T03:39:22;113.77;;;6.07;;
4274;SDS011;2151;50.988;11.068;2023-11-21T03:41:48;112.77;;;5.83;;
4274;SDS011;2151;50.988;11.068;2023-11-21T03:44:15;117.30;;;6.30;;
4274;SDS011;2151;50.988;11.068;2023-11-21T03:46:41;112.37;;;5.83;;
4274;SDS011;2151;50.988;11.068;2023-11-21T03:49:08;112.90;;;6.30;;
4274;SDS011;2151;50.988;11.068;2023-11-21T03:51:34;113.57;;;5.80;;
4274;SDS011;2151;50.988;11.068;2023-11-21T03:54:01;115.40;;;5.90;;
4274;SDS011;2151;50.988;11.068;2023-11-21T03:56:27;115.00;;;5.57;;
4274;SDS011;2151;50.988;11.068;2023-11-21T03:58:54;113.57;;;6.00;;
4274;SDS011;2151;50.988;11.068;2023-11-21T04:01:21;112.63;;;5.80;;
4274;SDS011;2151;50.988;11.068;2023-11-21T04:03:48;113.80;;;6.00;;
4274;SDS011;2151;50.988;11.068;2023-11-21T04:06:16;118.50;;;5.90;;
4274;SDS011;2151;50.988;11.068;2023-11-21T04:08:44;113.77;;;6.17;;
4274;SDS011;2151;50.988;11.068;2023-11-21T04:11:11;114.17;;;6.07;;
4274;SDS011;2151;50.988;11.068;2023-11-21T04:13:40;115.60;;;6.40;;
4274;SDS011;2151;50.988;11.068;2023-11-21T04:16:07;117.23;;;6.90;;
4274;SDS011;2151;50.988;11.068;2023-11-21T04:18:35;114.83;;;6.50;;
4274;SDS011;2151;50.988;11.068;2023-11-21T04:21:02;114.17;;;6.57;;
4274;SDS011;2151;50.988;11.068;2023-11-21T04:23:28;113.87;;;6.40;;
4274;SDS011;2151;50.988;11.068;2023-11-21T04:25:55;114.97;;;6.77;;
4274;SDS011;2151;50.988;11.068;2023-11-21T04:28:23;115.07;;;6.60;;
4274;SDS011;2151;50.988;11.068;2023-11-21T04:30:50;114.90;;;6.90;;
4274;SDS011;2151;50.988;11.068;2023-11-21T04:33:17;114.43;;;6.90;;
4274;SDS011;2151;50.988;11.068;2023-11-21T04:35:43;116.40;;;6.80;;
4274;SDS011;2151;50.988;11.068;2023-11-21T04:38:10;118.93;;;7.03;;
4274;SDS011;2151;50.988;11.068;2023-11-21T04:40:36;117.90;;;6.57;;
4274;SDS011;2151;50.988;11.068;2023-11-21T04:43:03;114.77;;;6.50;;
4274;SDS011;2151;50.988;11.068;2023-11-21T04:45:30;115.47;;;6.53;;
4274;SDS011;2151;50.988;11.068;2023-11-21T04:47:56;115.70;;;6.30;;
4274;SDS011;2151;50.988;11.068;2023-11-21T04:50:23;116.13;;;6.70;;
4274;SDS011;2151;50.988;11.068;2023-11-21T04:52:49;114.17;;;6.83;;
4274;SDS011;2151;50.988;11.068;2023-11-21T04:55:16;122.80;;;7.10;;
4274;SDS011;2151;50.988;11.068;2023-11-21T04:57:42;114.77;;;6.70;;
4274;SDS011;2151;50.988;11.068;2023-11-21T05:00:09;114.20;;;6.10;;
4274;SDS011;2151;50.988;11.068;2023-11-21T05:02:37;115.23;;;6.53;;
4274;SDS011;2151;50.988;11.068;2023-11-21T05:05:04;115.37;;;6.80;;
4274;SDS011;2151;50.988;11.068;2023-11-21T05:07:32;114.27;;;6.60;;
4274;SDS011;2151;50.988;11.068;2023-11-21T05:09:58;115.40;;;6.80;;
4274;SDS011;2151;50.988;11.068;2023-11-21T05:12:25;116.67;;;6.63;;
4274;SDS011;2151;50.988;11.068;2023-11-21T05:14:51;116.37;;;6.37;;
4274;SDS011;2151;50.988;11.068;2023-11-21T05:17:18;114.93;;;6.37;;
4274;SDS011;2151;50.988;11.068;2023-11-21T05:19:45;116.67;;;6.67;;
4274;SDS011;2151;50.988;11.068;2023-11-21T05:22:15;117.77;;;7.43;;
4274;SDS011;2151;50.988;11.068;2023-11-21T05:24:42;116.40;;;6.80;;
4274;SDS011;2151;50.988;11.068;2023-11-21T05:27:08;116.27;;;6.00;;
4274;SDS011;2151;50.988;11.068;2023-11-21T05:29:36;119.67;;;6.73;;
4274;SDS011;2151;50.988;11.068;2023-11-21T05:32:04;117.77;;;6.63;;
4274;SDS011;2151;50.988;11.068;2023-11-21T05:34:30;117.57;;;6.43;;
4274;SDS011;2151;50.988;11.068;2023-11-21T05:36:57;115.37;;;6.50;;
4274;SDS011;2151;50.988;11.068;2023-11-21T05:39:24;117.87;;;6.67;;
4274;SDS011;2151;50.988;11.068;2023-11-21T05:41:51;119.57;;;6.53;;
4274;SDS011;2151;50.988;11.068;2023-11-21T05:44:17;115.90;;;6.80;;
4274;SDS011;2151;50.988;11.068;2023-11-21T05:46:44;119.10;;;7.43;;
4274;SDS011;2151;50.988;11.068;2023-11-21T05:49:11;119.27;;;7.40;;
4274;SDS011;2151;50.988;11.068;2023-11-21T05:51:37;118.57;;;7.30;;
4274;SDS011;2151;50.988;11.068;2023-11-21T05:54:04;117.43;;;7.97;;
4274;SDS011;2151;50.988;11.068;2023-11-21T05:56:31;120.90;;;7.70;;
4274;SDS011;2151;50.988;11.068;2023-11-21T05:58:58;118.97;;;8.37;;
4274;SDS011;2151;50.988;11.068;2023-11-21T06:01:25;121.60;;;9.00;;
4274;SDS011;2151;50.988;11.068;2023-11-21T06:03:54;117.17;;;7.90;;
4274;SDS011;2151;50.988;11.068;2023-11-21T06:06:21;118.47;;;7.90;;
4274;SDS011;2151;50.988;11.068;2023-11-21T06:08:48;117.67;;;8.00;;
4274;SDS011;2151;50.988;11.068;2023-11-21T06:11:15;119.73;;;8.00;;
4274;SDS011;2151;50.988;11.068;2023-11-21T06:13:43;120.00;;;8.60;;
4274;SDS011;2151;50.988;11.068;2023-11-21T06:16:10;120.67;;;8.60;;
4274;SDS011;2151;50.988;11.068;2023-11-21T06:18:36;123.67;;;8.70;;
4274;SDS011;2151;50.988;11.068;2023-11-21T06:21:03;120.07;;;9.10;;
4274;SDS011;2151;50.988;11.068;2023-11-21T06:23:30;120.00;;;8.70;;
4274;SDS011;2151;50.988;11.068;2023-11-21T06:25:57;120.37;;;8.93;;
4274;SDS011;2151;50.988;11.068;2023-11-21T06:28:23;117.73;;;8.20;;
4274;SDS011;2151;50.988;11.068;2023-11-21T06:30:50;124.60;;;8.30;;
4274;SDS011;2151;50.988;11.068;2023-11-21T06:33:16;118.60;;;8.87;;
4274;SDS011;2151;50.988;11.068;2023-11-21T06:35:43;120.60;;;9.10;;
4274;SDS011;2151;50.988;11.068;2023-11-21T06:38:10;125.87;;;10.63;;
4274;SDS011;2151;50.988;11.068;2023-11-21T06:40:36;132.83;;;11.67;;
4274;SDS011;2151;50.988;11.068;2023-11-21T06:43:02;151.10;;;11.20;;
4274;SDS011;2151;50.988;11.068;2023-11-21T06:45:31;137.83;;;9.30;;
4274;SDS011;2151;50.988;11.068;2023-11-21T06:47:57;124.47;;;8.10;;
4274;SDS011;2151;50.988;11.068;2023-11-21T06:50:24;137.93;;;8.70;;
4274;SDS011;2151;50.988;11.068;2023-11-21T06:52:50;151.60;;;9.07;;
4274;SDS011;2151;50.988;11.068;2023-11-21T06:55:17;127.13;;;8.73;;
4274;SDS011;2151;50.988;11.068;2023-11-21T06:57:43;120.47;;;9.07;;
4274;SDS011;2151;50.988;11.068;2023-11-21T07:00:11;122.67;;;9.00;;
4274;SDS011;2151;50.988;11.068;2023-11-21T07:02:37;128.47;;;10.00;;
4274;SDS011;2151;50.988;11.068;2023-11-21T07:05:05;132.33;;;9.23;;
4274;SDS011;2151;50.988;11.068;2023-11-21T07:07:32;128.53;;;9.50;;
4274;SDS011;2151;50.988;11.068;2023-11-21T07:10:02;125.43;;;9.33;;
4274;SDS011;2151;50.988;11.068;2023-11-21T07:12:30;121.07;;;8.87;;
4274;SDS011;2151;50.988;11.068;2023-11-21T07:14:57;136.40;;;9.23;;
4274;SDS011;2151;50.988;11.068;2023-11-21T07:17:24;122.10;;;9.40;;
4274;SDS011;2151;50.988;11.068;2023-11-21T07:19:50;134.47;;;11.20;;
4274;SDS011;2151;50.988;11.068;2023-11-21T07:22:17;128.20;;;10.03;;
4274;SDS011;2151;50.988;11.068;2023-11-21T07:24:48;128.90;;;11.10;;
4274;SDS011;2151;50.988;11.068;2023-11-21T07:27:15;128.03;;;11.97;;
4274;SDS011;2151;50.988;11.068;2023-11-21T07:29:41;132.77;;;10.20;;
4274;SDS011;2151;50.988;11.068;2023-11-21T07:32:07;130.60;;;10.13;;
4274;SDS011;2151;50.988;11.068;2023-11-21T07:34:36;129.00;;;10.10;;
4274;SDS011;2151;50.988;11.068;2023-11-21T07:37:02;131.27;;;11.40;;
4274;SDS011;2151;50.988;11.068;2023-11-21T07:39:29;128.10;;;12.00;;
4274;SDS011;2151;50.988;11.068;2023-11-21T07:41:56;126.67;;;11.30;;
4274;SDS011;2151;50.988;11.068;2023-11-21T07:44:24;125.17;;;10.00;;
4274;SDS011;2151;50.988;11.068;2023-11-21T07:46:50;122.87;;;10.70;;
4274;SDS011;2151;50.988;11.068;2023-11-21T07:49:17;123.50;;;9.97;;
4274;SDS011;2151;50.988;11.068;2023-11-21T07:51:46;123.83;;;9.50;;
4274;SDS011;2151;50.988;11.068;2023-11-21T07:54:13;129.50;;;9.83;;
4274;SDS011;2151;50.988;11.068;2023-11-21T07:56:39;121.83;;;9.43;;
4274;SDS011;2151;50.988;11.068;2023-11-21T07:59:06;125.80;;;9.53;;
4274;SDS011;2151;50.988;11.068;2023-11-21T08:01:32;119.63;;;9.30;;
4274;SDS011;2151;50.988;11.068;2023-11-21T08:03:59;122.47;;;9.97;;
4274;SDS011;2151;50.988;11.068;2023-11-21T08:06:30;124.00;;;8.80;;
4274;SDS011;2151;50.988;11.068;2023-11-21T08:08:57;128.53;;;9.43;;
4274;SDS011;2151;50.988;11.068;2023-11-21T08:11:23;121.47;;;8.80;;
4274;SDS011;2151;50.988;11.068;2023-11-21T08:13:50;119.10;;;9.07;;
4274;SDS011;2151;50.988;11.068;2023-11-21T08:16:16;120.90;;;10.00;;
4274;SDS011;2151;50.988;11.068;2023-11-21T08:18:43;120.20;;;9.00;;
4274;SDS011;2151;50.988;11.068;2023-11-21T08:21:12;124.47;;;9.87;;
4274;SDS011;2151;50.988;11.068;2023-11-21T08:23:38;120.40;;;9.23;;
4274;SDS011;2151;50.988;11.068;2023-11-21T08:26:05;120.73;;;9.13;;
4274;SDS011;2151;50.988;11.068;2023-11-21T08:28:32;120.70;;;9.60;;
4274;SDS011;2151;50.988;11.068;2023-11-21T08:30:58;122.67;;;10.40;;
4274;SDS011;2151;50.988;11.068;2023-11-21T08:33:26;119.87;;;9.00;;
4274;SDS011;2151;50.988;11.068;2023-11-21T08:35:53;122.30;;;9.47;;
4274;SDS011;2151;50.988;11.068;2023-11-21T08:38:19;119.77;;;9.57;;
4274;SDS011;2151;50.988;11.068;2023-11-21T08:40:46;120.53;;;9.70;;
4274;SDS011;2151;50.988;11.068;2023-11-21T08:43:12;120.47;;;8.90;;
4274;SDS011;2151;50.988;11.068;2023-11-21T08:45:40;122.20;;;8.60;;
4274;SDS011;2151;50.988;11.068;2023-11-21T08:48:07;123.17;;;8.73;;
4274;SDS011;2151;50.988;11.068;2023-11-21T08:50:34;122.00;;;8.03;;
4274;SDS011;2151;50.988;11.068;2023-11-21T08:53:01;121.47;;;9.00;;
4274;SDS011;2151;50.988;11.068;2023-11-21T08:55:27;118.77;;;8.83;;
4274;SDS011;2151;50.988;11.068;2023-11-21T08:57:55;118.10;;;8.70;;
4274;SDS011;2151;50.988;11.068;2023-11-21T09:00:24;118.67;;;8.90;;
4274;SDS011;2151;50.988;11.068;2023-11-21T09:02:50;120.47;;;8.57;;
4274;SDS011;2151;50.988;11.068;2023-11-21T09:05:17;117.50;;;8.60;;
4274;SDS011;2151;50.988;11.068;2023-11-21T09:07:45;123.13;;;9.00;;
4274;SDS011;2151;50.988;11.068;2023-11-21T09:10:12;119.27;;;8.47;;
4274;SDS011;2151;50.988;11.068;2023-11-21T09:12:39;116.57;;;8.30;;
4274;SDS011;2151;50.988;11.068;2023-11-21T09:15:07;117.57;;;8.20;;
4274;SDS011;2151;50.988;11.068;2023-11-21T09:17:36;118.47;;;8.83;;
4274;SDS011;2151;50.988;11.068;2023-11-21T09:20:02;119.30;;;8.37;;
4274;SDS011;2151;50.988;11.068;2023-11-21T09:22:32;119.57;;;9.00;;
4274;SDS011;2151;50.988;11.068;2023-11-21T09:24:58;119.17;;;8.60;;
4274;SDS011;2151;50.988;11.068;2023-11-21T09:27:25;117.53;;;8.80;;
4274;SDS011;2151;50.988;11.068;2023-11-21T09:29:54;121.53;;;8.73;;
4274;SDS011;2151;50.988;11.068;2023-11-21T09:32:21;119.83;;;8.60;;
4274;SDS011;2151;50.988;11.068;2023-11-21T09:34:48;119.10;;;8.93;;
4274;SDS011;2151;50.988;11.068;2023-11-21T09:37:16;119.87;;;9.30;;
4274;SDS011;2151;50.988;11.068;2023-11-21T09:39:43;121.60;;;9.27;;
4274;SDS011;2151;50.988;11.068;2023-11-21T09:42:17;119.87;;;9.57;;
4274;SDS011;2151;50.988;11.068;2023-11-21T09:47:25;119.20;;;9.53;;
4274;SDS011;2151;50.988;11.068;2023-11-21T09:49:53;122.27;;;9.97;;
4274;SDS011;2151;50.988;11.068;2023-11-21T09:52:26;124.30;;;9.37;;
4274;SDS011;2151;50.988;11.068;2023-11-21T09:54:53;122.70;;;9.43;;
4274;SDS011;2151;50.988;11.068;2023-11-21T09:57:20;123.17;;;9.60;;
4274;SDS011;2151;50.988;11.068;2023-11-21T09:59:53;121.27;;;9.30;;
4274;SDS011;2151;50.988;11.068;2023-11-21T10:02:27;118.57;;;9.40;;
4274;SDS011;2151;50.988;11.068;2023-11-21T10:04:56;133.53;;;9.87;;
4274;SDS011;2151;50.988;11.068;2023-11-21T10:07:23;120.87;;;9.83;;
4274;SDS011;2151;50.988;11.068;2023-11-21T10:09:50;124.53;;;9.80;;
4274;SDS011;2151;50.988;11.068;2023-11-21T10:12:17;124.10;;;10.23;;
4274;SDS011;2151;50.988;11.068;2023-11-21T10:14:43;121.80;;;10.47;;
4274;SDS011;2151;50.988;11.068;2023-11-21T10:17:14;122.73;;;10.50;;
4274;SDS011;2151;50.988;11.068;2023-11-21T10:19:42;122.70;;;9.63;;
4274;SDS011;2151;50.988;11.068;2023-11-21T10:22:09;123.20;;;9.63;;
4274;SDS011;2151;50.988;11.068;2023-11-21T10:24:36;121.27;;;10.87;;
4274;SDS011;2151;50.988;11.068;2023-11-21T10:27:17;120.57;;;9.83;;
4274;SDS011;2151;50.988;11.068;2023-11-21T10:29:43;119.63;;;10.10;;
4274;SDS011;2151;50.988;11.068;2023-11-21T10:32:10;121.60;;;10.50;;
4274;SDS011;2151;50.988;11.068;2023-11-21T10:34:38;124.70;;;10.67;;
4274;SDS011;2151;50.988;11.068;2023-11-21T10:37:13;121.30;;;10.00;;
4274;SDS011;2151;50.988;11.068;2023-11-21T10:39:40;121.70;;;9.83;;
4274;SDS011;2151;50.988;11.068;2023-11-21T10:42:08;124.37;;;9.90;;
4274;SDS011;2151;50.988;11.068;2023-11-21T10:44:34;122.43;;;9.80;;
4274;SDS011;2151;50.988;11.068;2023-11-21T10:47:00;125.07;;;11.07;;
4274;SDS011;2151;50.988;11.068;2023-11-21T10:49:28;123.90;;;10.43;;
4274;SDS011;2151;50.988;11.068;2023-11-21T10:51:55;121.37;;;9.97;;
4274;SDS011;2151;50.988;11.068;2023-11-21T10:54:23;121.10;;;10.90;;
4274;SDS011;2151;50.988;11.068;2023-11-21T10:56:50;125.33;;;11.10;;
4274;SDS011;2151;50.988;11.068;2023-11-21T10:59:17;126.17;;;11.20;;
4274;SDS011;2151;50.988;11.068;2023-11-21T11:01:44;120.60;;;11.00;;
4274;SDS011;2151;50.988;11.068;2023-11-21T11:04:12;122.17;;;10.60;;
4274;SDS011;2151;50.988;11.068;2023-11-21T11:06:43;125.20;;;10.27;;
4274;SDS011;2151;50.988;11.068;2023-11-21T11:09:13;121.57;;;10.13;;
4274;SDS011;2151;50.988;11.068;2023-11-21T11:11:40;123.03;;;11.27;;
4274;SDS011;2151;50.988;11.068;2023-11-21T11:14:09;122.37;;;11.17;;
4274;SDS011;2151;50.988;11.068;2023-11-21T11:16:37;121.13;;;10.40;;
4274;SDS011;2151;50.988;11.068;2023-11-21T11:19:06;124.87;;;12.07;;
4274;SDS011;2151;50.988;11.068;2023-11-21T11:24:28;123.90;;;12.13;;
4274;SDS011;2151;50.988;11.068;2023-11-21T11:29:46;126.33;;;12.13;;
4274;SDS011;2151;50.988;11.068;2023-11-21T11:32:24;147.97;;;14.67;;
4274;SDS011;2151;50.988;11.068;2023-11-21T11:35:04;129.93;;;13.20;;
4274;SDS011;2151;50.988;11.068;2023-11-21T11:37:32;133.03;;;13.80;;
4274;SDS011;2151;50.988;11.068;2023-11-21T11:39:59;126.53;;;13.57;;
4274;SDS011;2151;50.988;11.068;2023-11-21T11:42:26;131.43;;;13.30;;
4274;SDS011;2151;50.988;11.068;2023-11-21T11:44:53;133.57;;;13.80;;
4274;SDS011;2151;50.988;11.068;2023-11-21T11:55:10;131.10;;;14.77;;
4274;SDS011;2151;50.988;11.068;2023-11-21T11:57:37;133.60;;;15.60;;
4274;SDS011;2151;50.988;11.068;2023-11-21T12:00:15;130.43;;;13.90;;
4274;SDS011;2151;50.988;11.068;2023-11-21T12:02:52;134.90;;;14.23;;
4274;SDS011;2151;50.988;11.068;2023-11-21T12:05:20;135.07;;;14.03;;
4274;SDS011;2151;50.988;11.068;2023-11-21T12:07:51;131.30;;;15.17;;
4274;SDS011;2151;50.988;11.068;2023-11-21T12:10:20;140.10;;;14.40;;
4274;SDS011;2151;50.988;11.068;2023-11-21T12:12:48;131.27;;;14.57;;
4274;SDS011;2151;50.988;11.068;2023-11-21T12:15:15;131.53;;;14.43;;
4274;SDS011;2151;50.988;11.068;2023-11-21T12:17:42;139.43;;;15.90;;
4274;SDS011;2151;50.988;11.068;2023-11-21T12:20:12;133.37;;;14.20;;
4274;SDS011;2151;50.988;11.068;2023-11-21T12:22:47;129.93;;;13.57;;
4274;SDS011;2151;50.988;11.068;2023-11-21T12:25:14;130.03;;;13.10;;
4274;SDS011;2151;50.988;11.068;2023-11-21T12:27:43;131.83;;;13.70;;
4274;SDS011;2151;50.988;11.068;2023-11-21T12:30:11;130.30;;;12.87;;
4274;SDS011;2151;50.988;11.068;2023-11-21T12:32:41;134.80;;;13.70;;
4274;SDS011;2151;50.988;11.068;2023-11-21T12:35:08;128.67;;;13.43;;
4274;SDS011;2151;50.988;11.068;2023-11-21T12:37:36;128.07;;;12.10;;
4274;SDS011;2151;50.988;11.068;2023-11-21T12:40:05;127.97;;;12.10;;
4274;SDS011;2151;50.988;11.068;2023-11-21T12:42:32;130.80;;;11.67;;
4274;SDS011;2151;50.988;11.068;2023-11-21T12:45:08;130.00;;;12.60;;
4274;SDS011;2151;50.988;11.068;2023-11-21T12:47:35;124.07;;;11.37;;
4274;SDS011;2151;50.988;11.068;2023-11-21T12:50:02;126.17;;;11.70;;
4274;SDS011;2151;50.988;11.068;2023-11-21T12:52:29;132.00;;;11.43;;
4274;SDS011;2151;50.988;11.068;2023-11-21T12:54:56;127.37;;;10.40;;
4274;SDS011;2151;50.988;11.068;2023-11-21T12:57:26;128.40;;;11.67;;
4274;SDS011;2151;50.988;11.068;2023-11-21T12:59:59;128.70;;;12.17;;
4274;SDS011;2151;50.988;11.068;2023-11-21T13:02:26;124.20;;;11.23;;
4274;SDS011;2151;50.988;11.068;2023-11-21T13:04:53;127.10;;;10.47;;
4274;SDS011;2151;50.988;11.068;2023-11-21T13:07:20;119.00;;;8.80;;
4274;SDS011;2151;50.988;11.068;2023-11-21T13:09:51;122.20;;;8.97;;
4274;SDS011;2151;50.988;11.068;2023-11-21T13:12:23;120.60;;;7.83;;
4274;SDS011;2151;50.988;11.068;2023-11-21T13:14:51;121.83;;;8.03;;
4274;SDS011;2151;50.988;11.068;2023-11-21T13:17:18;117.70;;;7.40;;
4274;SDS011;2151;50.988;11.068;2023-11-21T13:19:45;117.17;;;7.67;;
4274;SDS011;2151;50.988;11.068;2023-11-21T13:22:11;118.30;;;7.17;;
4274;SDS011;2151;50.988;11.068;2023-11-21T13:24:38;116.60;;;6.97;;
4274;SDS011;2151;50.988;11.068;2023-11-21T13:27:04;118.87;;;6.47;;
4274;SDS011;2151;50.988;11.068;2023-11-21T13:29:31;118.17;;;7.20;;
4274;SDS011;2151;50.988;11.068;2023-11-21T13:31:57;119.43;;;7.10;;
4274;SDS011;2151;50.988;11.068;2023-11-21T13:34:25;116.10;;;6.57;;
4274;SDS011;2151;50.988;11.068;2023-11-21T13:36:58;118.23;;;7.43;;
4274;SDS011;2151;50.988;11.068;2023-11-21T13:39:27;118.57;;;8.20;;
4274;SDS011;2151;50.988;11.068;2023-11-21T13:41:55;118.17;;;7.60;;
4274;SDS011;2151;50.988;11.068;2023-11-21T13:44:23;121.63;;;8.23;;
4274;SDS011;2151;50.988;11.068;2023-11-21T13:47:01;118.97;;;7.40;;
4274;SDS011;2151;50.988;11.068;2023-11-21T13:49:27;118.60;;;7.73;;
4274;SDS011;2151;50.988;11.068;2023-11-21T13:51:58;118.40;;;7.87;;
4274;SDS011;2151;50.988;11.068;2023-11-21T13:54:26;117.67;;;7.80;;
4274;SDS011;2151;50.988;11.068;2023-11-21T13:56:54;118.63;;;8.17;;
4274;SDS011;2151;50.988;11.068;2023-11-21T13:59:21;122.90;;;8.50;;
4274;SDS011;2151;50.988;11.068;2023-11-21T14:01:51;120.27;;;8.67;;
4274;SDS011;2151;50.988;11.068;2023-11-21T14:04:26;122.30;;;8.60;;
4274;SDS011;2151;50.988;11.068;2023-11-21T14:06:59;120.50;;;8.80;;
4274;SDS011;2151;50.988;11.068;2023-11-21T14:09:37;123.30;;;9.30;;
4274;SDS011;2151;50.988;11.068;2023-11-21T14:12:10;123.57;;;10.17;;
4274;SDS011;2151;50.988;11.068;2023-11-21T14:14:39;124.40;;;12.00;;
4274;SDS011;2151;50.988;11.068;2023-11-21T14:17:06;126.30;;;12.60;;
4274;SDS011;2151;50.988;11.068;2023-11-21T14:19:33;126.57;;;12.50;;
4274;SDS011;2151;50.988;11.068;2023-11-21T14:22:03;126.67;;;12.87;;
4274;SDS011;2151;50.988;11.068;2023-11-21T14:24:30;129.60;;;14.83;;
4274;SDS011;2151;50.988;11.068;2023-11-21T14:27:01;130.90;;;13.93;;
4274;SDS011;2151;50.988;11.068;2023-11-21T14:29:33;129.10;;;14.60;;
4274;SDS011;2151;50.988;11.068;2023-11-21T14:32:08;133.10;;;15.10;;
4274;SDS011;2151;50.988;11.068;2023-11-21T14:34:39;132.80;;;15.00;;
4274;SDS011;2151;50.988;11.068;2023-11-21T14:37:10;131.30;;;15.97;;
4274;SDS011;2151;50.988;11.068;2023-11-21T14:39:43;128.87;;;13.57;;
4274;SDS011;2151;50.988;11.068;2023-11-21T14:42:19;126.87;;;13.70;;
4274;SDS011;2151;50.988;11.068;2023-11-21T14:44:54;135.47;;;15.83;;
4274;SDS011;2151;50.988;11.068;2023-11-21T14:47:30;131.47;;;14.57;;
4274;SDS011;2151;50.988;11.068;2023-11-21T14:50:01;140.00;;;16.70;;